createdAt,value
2018-03-01T00:01:08.836Z,53.50
2018-03-01T00:03:36.545Z,53.50
2018-03-01T00:06:04.154Z,53.70
2018-03-01T00:08:31.787Z,53.70
2018-03-01T00:11:00.204Z,53.70
2018-03-01T00:13:28.674Z,53.80
2018-03-01T00:15:56.336Z,53.80
2018-03-01T00:18:24.041Z,53.80
2018-03-01T00:20:51.676Z,53.70
2018-03-01T00:23:19.460Z,53.60
2018-03-01T00:25:47.113Z,53.50
2018-03-01T00:28:14.734Z,53.90
2018-03-01T00:30:42.444Z,53.90
2018-03-01T00:33:10.107Z,54.10
2018-03-01T00:35:37.763Z,53.60
2018-03-01T00:38:05.427Z,54.00
2018-03-01T00:40:33.624Z,54.10
2018-03-01T00:43:01.252Z,54.10
2018-03-01T00:45:29.069Z,53.90
2018-03-01T00:47:57.843Z,54.20
2018-03-01T00:50:25.653Z,54.20
2018-03-01T00:52:53.337Z,54.10
2018-03-01T00:55:20.978Z,54.10
2018-03-01T00:57:48.588Z,53.90
2018-03-01T01:00:17.031Z,54.00
2018-03-01T01:02:45.498Z,54.10
2018-03-01T01:05:13.269Z,54.10
2018-03-01T01:07:40.889Z,54.30
2018-03-01T01:10:09.307Z,54.20
2018-03-01T01:12:37.025Z,54.20
2018-03-01T01:15:05.432Z,54.40
2018-03-01T01:17:33.148Z,54.40
2018-03-01T01:20:01.551Z,54.60
2018-03-01T01:22:29.933Z,54.70
2018-03-01T01:24:57.555Z,54.70
2018-03-01T01:27:25.340Z,54.50
2018-03-01T01:29:53.020Z,54.40
2018-03-01T01:32:20.661Z,54.50
2018-03-01T01:34:49.107Z,54.60
2018-03-01T01:37:16.803Z,54.50
2018-03-01T01:39:45.281Z,54.40
2018-03-01T01:42:13.762Z,54.80
2018-03-01T01:44:41.537Z,54.50
2018-03-01T01:47:09.994Z,54.50
2018-03-01T01:49:37.640Z,54.50
2018-03-01T01:52:05.263Z,54.30
2018-03-01T01:54:32.955Z,54.50
2018-03-01T01:57:00.651Z,54.50
2018-03-01T01:59:28.379Z,54.40
2018-03-01T02:01:56.008Z,54.50
2018-03-01T02:04:23.666Z,54.40
2018-03-01T02:06:51.303Z,54.40
2018-03-01T02:09:19.687Z,55.10
2018-03-01T02:11:48.109Z,54.50
2018-03-01T02:14:15.837Z,54.50
2018-03-01T02:16:44.307Z,54.50
2018-03-01T02:19:12.743Z,54.40
2018-03-01T02:21:40.424Z,54.40
2018-03-01T02:24:08.030Z,54.30
2018-03-01T02:26:35.619Z,54.50
2018-03-01T02:29:03.515Z,54.30
2018-03-01T02:31:31.148Z,54.30
2018-03-01T02:33:58.858Z,54.50
2018-03-01T02:36:33.157Z,54.50
2018-03-01T02:39:00.882Z,54.50
2018-03-01T02:41:28.524Z,54.40
2018-03-01T02:43:56.153Z,54.30
2018-03-01T02:46:24.569Z,54.40
2018-03-01T02:48:52.300Z,54.30
2018-03-01T02:51:20.688Z,54.50
2018-03-01T02:53:48.402Z,54.50
2018-03-01T02:56:16.282Z,54.40
2018-03-01T02:58:44.880Z,54.50
2018-03-01T03:01:12.530Z,54.50
2018-03-01T03:03:40.230Z,54.60
2018-03-01T03:06:08.608Z,54.60
2018-03-01T03:08:36.400Z,54.60
2018-03-01T03:11:04.025Z,54.70
2018-03-01T03:13:31.717Z,54.60
2018-03-01T03:15:59.321Z,54.50
2018-03-01T03:18:26.980Z,54.50
2018-03-01T03:20:54.733Z,54.60
2018-03-01T03:23:22.720Z,54.60
2018-03-01T03:25:50.324Z,54.50
2018-03-01T03:28:18.075Z,54.50
2018-03-01T03:30:45.857Z,54.30
2018-03-01T03:33:13.590Z,54.50
2018-03-01T03:35:42.029Z,54.20
2018-03-01T03:38:09.752Z,54.20
2018-03-01T03:40:37.426Z,54.00
2018-03-01T03:43:05.023Z,54.20
2018-03-01T03:45:32.942Z,54.10
2018-03-01T03:48:00.541Z,54.10
2018-03-01T03:50:28.242Z,54.00
2018-03-01T03:52:56.718Z,53.70
2018-03-01T03:55:24.384Z,53.70
2018-03-01T03:57:52.802Z,53.50
2018-03-01T04:00:20.395Z,53.50
2018-03-01T04:02:48.052Z,53.50
2018-03-01T04:05:15.704Z,53.40
2018-03-01T04:07:43.442Z,53.50
2018-03-01T04:10:11.104Z,53.30
2018-03-01T04:12:38.861Z,53.30
2018-03-01T04:15:06.653Z,53.30
2018-03-01T04:17:34.315Z,53.30
2018-03-01T04:20:01.982Z,53.30
2018-03-01T04:22:29.602Z,53.30
2018-03-01T04:24:57.374Z,53.30
2018-03-01T04:27:25.032Z,53.50
2018-03-01T04:29:52.693Z,53.40
2018-03-01T04:32:20.372Z,53.40
2018-03-01T04:34:47.987Z,53.40
2018-03-01T04:37:16.659Z,53.50
2018-03-01T04:39:45.745Z,53.50
2018-03-01T04:42:13.900Z,53.50
2018-03-01T04:44:41.537Z,53.40
2018-03-01T04:47:09.897Z,53.10
2018-03-01T04:49:38.296Z,53.50
2018-03-01T04:52:05.932Z,53.50
2018-03-01T04:54:35.814Z,53.10
2018-03-01T04:57:03.451Z,53.00
2018-03-01T04:59:31.509Z,53.10
2018-03-01T05:01:59.141Z,53.10
2018-03-01T05:04:27.527Z,52.80
2018-03-01T05:06:55.211Z,52.80
2018-03-01T05:09:22.839Z,52.80
2018-03-01T05:11:51.283Z,52.40
2018-03-01T05:14:18.904Z,52.40
2018-03-01T05:16:46.548Z,52.20
2018-03-01T05:19:14.170Z,52.40
2018-03-01T05:21:41.945Z,52.30
2018-03-01T05:24:09.549Z,52.40
2018-03-01T05:26:37.249Z,52.50
2018-03-01T05:29:04.892Z,52.40
2018-03-01T05:31:32.620Z,52.50
2018-03-01T05:34:00.271Z,52.40
2018-03-01T05:36:27.980Z,52.40
2018-03-01T05:38:55.870Z,52.20
2018-03-01T05:41:23.469Z,52.20
2018-03-01T05:43:51.153Z,52.20
2018-03-01T05:46:18.781Z,52.40
2018-03-01T05:48:47.173Z,52.20
2018-03-01T05:51:15.027Z,52.20
2018-03-01T05:53:43.434Z,52.10
2018-03-01T05:56:11.305Z,52.10
2018-03-01T05:58:38.936Z,52.00
2018-03-01T06:01:07.446Z,52.50
2018-03-01T06:03:35.105Z,52.50
2018-03-01T06:06:02.773Z,52.40
2018-03-01T06:08:30.424Z,52.40
2018-03-01T06:10:58.972Z,52.10
2018-03-01T06:13:27.354Z,52.40
2018-03-01T06:15:55.770Z,52.20
2018-03-01T06:18:23.407Z,52.20
2018-03-01T06:20:51.137Z,52.20
2018-03-01T06:23:18.801Z,51.90
2018-03-01T06:25:46.830Z,51.60
2018-03-01T06:28:14.437Z,51.30
2018-03-01T06:30:42.073Z,51.10
2018-03-01T06:33:09.746Z,51.30
2018-03-01T06:35:37.408Z,51.30
2018-03-01T06:38:05.045Z,51.40
2018-03-01T06:40:32.703Z,51.60
2018-03-01T06:43:00.450Z,51.30
2018-03-01T06:45:28.149Z,51.20
2018-03-01T06:47:55.904Z,51.20
2018-03-01T06:50:23.582Z,50.90
2018-03-01T06:52:52.042Z,50.50
2018-03-01T06:55:19.742Z,50.50
2018-03-01T06:57:47.485Z,50.50
2018-03-01T07:00:15.153Z,50.40
2018-03-01T07:02:42.889Z,50.70
2018-03-01T07:05:10.527Z,50.70
2018-03-01T07:07:38.164Z,50.20
2018-03-01T07:10:07.328Z,50.50
2018-03-01T07:12:34.970Z,50.50
2018-03-01T07:15:02.609Z,50.50
2018-03-01T07:17:30.386Z,50.40
2018-03-01T07:19:58.157Z,50.60
2018-03-01T07:22:25.798Z,50.80
2018-03-01T07:24:53.821Z,51.10
2018-03-01T07:27:22.526Z,50.20
2018-03-01T07:29:51.620Z,50.10
2018-03-01T07:32:20.099Z,49.80
2018-03-01T07:34:48.536Z,49.80
2018-03-01T07:37:16.161Z,49.80
2018-03-01T07:39:43.894Z,49.80
2018-03-01T07:42:12.433Z,49.70
2018-03-01T07:44:40.178Z,50.10
2018-03-01T07:47:09.847Z,49.30
2018-03-01T07:49:38.261Z,49.20
2018-03-01T07:52:05.868Z,48.80
2018-03-01T07:54:33.607Z,48.50
2018-03-01T07:57:01.248Z,48.20
2018-03-01T07:59:28.989Z,47.80
2018-03-01T08:01:57.596Z,47.20
2018-03-01T08:04:25.274Z,47.20
2018-03-01T08:06:53.022Z,47.80
2018-03-01T08:09:20.686Z,47.60
2018-03-01T08:11:48.552Z,47.70
2018-03-01T08:14:16.174Z,47.30
2018-03-01T08:16:44.729Z,47.60
2018-03-01T08:19:12.316Z,47.60
2018-03-01T08:21:40.818Z,47.70
2018-03-01T08:24:08.500Z,47.60
2018-03-01T08:26:36.111Z,46.70
2018-03-01T08:29:04.000Z,46.70
2018-03-01T08:31:32.436Z,46.20
2018-03-01T08:34:00.067Z,46.20
2018-03-01T08:36:27.764Z,46.30
2018-03-01T08:38:56.974Z,46.00
2018-03-01T08:41:24.741Z,45.90
2018-03-01T08:43:52.387Z,45.30
2018-03-01T08:46:20.012Z,44.80
2018-03-01T08:48:47.675Z,44.60
2018-03-01T08:51:15.396Z,45.10
2018-03-01T08:53:43.898Z,44.90
2018-03-01T08:56:11.645Z,44.90
2018-03-01T08:58:40.094Z,44.30
2018-03-01T09:01:08.749Z,44.30
2018-03-01T09:03:36.376Z,44.60
2018-03-01T09:06:05.152Z,45.10
2018-03-01T09:08:33.534Z,44.90
2018-03-01T09:11:01.970Z,44.50
2018-03-01T09:13:29.673Z,44.50
2018-03-01T09:15:58.614Z,43.60
2018-03-01T09:18:26.228Z,43.60
2018-03-01T09:20:53.950Z,43.00
2018-03-01T09:23:22.310Z,43.00
2018-03-01T09:25:50.082Z,42.50
2018-03-01T09:28:18.489Z,41.80
2018-03-01T09:30:46.125Z,41.80
2018-03-01T09:33:13.773Z,40.80
2018-03-01T09:35:41.479Z,40.20
2018-03-01T09:38:09.822Z,40.00
2018-03-01T09:40:37.444Z,40.30
2018-03-01T09:43:05.209Z,40.00
2018-03-01T09:45:33.767Z,39.00
2018-03-01T09:48:01.396Z,39.00
2018-03-01T09:50:30.096Z,39.60
2018-03-01T09:52:57.739Z,39.10
2018-03-01T09:55:25.403Z,38.40
2018-03-01T09:57:53.792Z,36.40
2018-03-01T10:00:22.560Z,36.30
2018-03-01T10:02:50.219Z,35.20
2018-03-01T10:05:17.856Z,33.40
2018-03-01T10:07:46.419Z,30.60
2018-03-01T10:10:14.823Z,29.80
2018-03-01T10:12:42.547Z,29.80
2018-03-01T10:15:10.219Z,30.70
2018-03-01T10:17:38.686Z,30.90
2018-03-01T10:20:06.383Z,30.90
2018-03-01T10:22:34.126Z,31.70
2018-03-01T10:25:02.520Z,30.40
2018-03-01T10:27:30.293Z,30.30
2018-03-01T10:29:57.954Z,29.80
2018-03-01T10:32:25.577Z,29.10
2018-03-01T10:34:53.246Z,29.20
2018-03-01T10:37:22.549Z,28.90
2018-03-01T10:39:50.979Z,28.80
2018-03-01T10:42:18.686Z,28.80
2018-03-01T10:44:46.330Z,28.50
2018-03-01T10:47:14.054Z,28.80
2018-03-01T10:49:41.821Z,30.00
2018-03-01T10:52:09.437Z,31.40
2018-03-01T10:54:37.148Z,31.30
2018-03-01T10:57:05.318Z,31.60
2018-03-01T10:59:32.974Z,30.90
2018-03-01T11:02:00.636Z,30.70
2018-03-01T11:04:28.329Z,31.10
2018-03-01T11:06:56.014Z,31.50
2018-03-01T11:09:25.505Z,31.50
2018-03-01T11:11:53.231Z,31.20
2018-03-01T11:14:21.937Z,30.10
2018-03-01T11:16:51.774Z,30.40
2018-03-01T11:19:19.431Z,30.30
2018-03-01T11:21:47.117Z,29.80
2018-03-01T11:24:16.096Z,29.40
2018-03-01T11:26:43.729Z,29.40
2018-03-01T11:29:11.804Z,29.40
2018-03-01T11:31:40.324Z,27.90
2018-03-01T11:34:10.375Z,27.80
2018-03-01T11:36:38.093Z,27.80
2018-03-01T11:39:05.864Z,28.20
2018-03-01T11:41:35.510Z,28.00
2018-03-01T11:44:03.145Z,27.90
2018-03-01T11:46:30.765Z,27.40
2018-03-01T11:48:58.426Z,28.10
2018-03-01T11:51:26.101Z,27.40
2018-03-01T11:53:53.723Z,26.60
2018-03-01T11:56:21.330Z,27.30
2018-03-01T11:58:49.143Z,27.00
2018-03-01T12:01:16.781Z,27.90
2018-03-01T12:03:44.453Z,28.10
2018-03-01T12:06:12.115Z,29.60
2018-03-01T12:08:39.850Z,30.30
2018-03-01T12:11:08.283Z,29.50
2018-03-01T12:13:35.925Z,29.40
2018-03-01T12:16:03.727Z,28.70
2018-03-01T12:18:31.740Z,28.90
2018-03-01T12:21:00.133Z,29.80
2018-03-01T12:23:28.017Z,29.80
2018-03-01T12:25:55.715Z,31.30
2018-03-01T12:28:23.437Z,32.00
2018-03-01T12:30:51.244Z,32.30
2018-03-01T12:33:18.947Z,32.60
2018-03-01T12:35:46.578Z,33.20
2018-03-01T12:38:15.897Z,32.30
2018-03-01T12:40:44.298Z,31.30
2018-03-01T12:43:12.042Z,31.30
2018-03-01T12:45:40.131Z,31.40
2018-03-01T12:48:07.786Z,31.70
2018-03-01T12:50:35.411Z,32.40
2018-03-01T12:53:03.907Z,33.00
2018-03-01T12:55:31.602Z,33.00
2018-03-01T12:57:59.295Z,33.20
2018-03-01T13:00:27.038Z,33.60
2018-03-01T13:02:54.679Z,33.40
2018-03-01T13:05:22.306Z,34.80
2018-03-01T13:07:49.988Z,34.60
2018-03-01T13:10:17.611Z,34.70
2018-03-01T13:12:45.250Z,34.70
2018-03-01T13:15:12.935Z,34.70
2018-03-01T13:17:40.657Z,34.40
2018-03-01T13:20:08.296Z,34.70
2018-03-01T13:22:35.960Z,34.40
2018-03-01T13:25:04.425Z,34.60
2018-03-01T13:27:32.809Z,34.70
2018-03-01T13:30:01.191Z,35.00
2018-03-01T13:32:40.376Z,35.40
2018-03-01T13:35:08.815Z,35.40
2018-03-01T13:37:36.427Z,35.40
2018-03-01T13:40:04.057Z,34.80
2018-03-01T13:42:42.523Z,34.30
2018-03-01T13:45:10.178Z,34.00
2018-03-01T13:47:39.836Z,33.90
2018-03-01T13:50:07.479Z,34.20
2018-03-01T13:52:35.138Z,33.80
2018-03-01T13:55:02.904Z,34.00
2018-03-01T13:57:30.577Z,33.60
2018-03-01T13:59:58.314Z,33.40
2018-03-01T14:02:25.949Z,33.40
2018-03-01T14:04:53.703Z,33.20
2018-03-01T14:07:22.980Z,33.30
2018-03-01T14:09:50.799Z,33.20
2018-03-01T14:12:28.354Z,33.10
2018-03-01T14:14:56.832Z,32.70
2018-03-01T14:17:24.563Z,32.70
2018-03-01T14:19:57.748Z,33.40
2018-03-01T14:22:30.951Z,33.70
2018-03-01T14:24:58.619Z,34.30
2018-03-01T14:27:28.731Z,34.90
2018-03-01T14:32:56.667Z,35.50
2018-03-01T14:35:25.055Z,35.20
2018-03-01T14:37:52.716Z,35.10
2018-03-01T14:40:20.347Z,34.80
2018-03-01T14:42:48.868Z,35.80
2018-03-01T14:45:16.560Z,35.00
2018-03-01T14:47:45.413Z,35.80
2018-03-01T14:50:13.132Z,35.80
2018-03-01T14:52:40.808Z,35.40
2018-03-01T14:55:08.433Z,35.50
2018-03-01T14:57:36.078Z,35.40
2018-03-01T15:00:03.768Z,35.60
2018-03-01T15:02:31.544Z,34.80
2018-03-01T15:04:59.194Z,34.90
2018-03-01T15:07:26.848Z,34.90
2018-03-01T15:09:54.578Z,35.00
2018-03-01T15:12:22.270Z,35.10
2018-03-01T15:14:50.489Z,34.60
2018-03-01T15:17:18.928Z,35.40
2018-03-01T15:19:46.573Z,35.40
2018-03-01T15:22:14.239Z,35.40
2018-03-01T15:24:41.989Z,36.00
2018-03-01T15:27:09.692Z,36.50
2018-03-01T15:29:37.365Z,36.50
2018-03-01T15:32:05.736Z,37.00
2018-03-01T15:34:33.497Z,37.00
2018-03-01T15:37:01.151Z,37.00
2018-03-01T15:39:29.135Z,37.00
2018-03-01T15:41:56.768Z,37.30
2018-03-01T15:44:24.514Z,37.50
2018-03-01T15:46:52.336Z,37.50
2018-03-01T15:49:20.781Z,37.90
2018-03-01T15:51:48.519Z,37.80
2018-03-01T15:54:16.166Z,38.40
2018-03-01T15:56:43.869Z,38.40
2018-03-01T15:59:11.569Z,38.50
2018-03-01T16:01:40.052Z,38.90
2018-03-01T16:04:08.556Z,39.20
2018-03-01T16:06:36.265Z,39.10
2018-03-01T16:09:03.991Z,39.40
2018-03-01T16:11:31.639Z,39.30
2018-03-01T16:13:59.304Z,39.30
2018-03-01T16:16:26.909Z,39.50
2018-03-01T16:18:54.591Z,39.70
2018-03-01T16:21:23.110Z,40.30
2018-03-01T16:23:50.838Z,40.20
2018-03-01T16:26:19.231Z,41.00
2018-03-01T16:28:46.951Z,40.30
2018-03-01T16:31:14.685Z,41.00
2018-03-01T16:33:42.645Z,41.20
2018-03-01T16:36:10.305Z,41.00
2018-03-01T16:38:37.968Z,41.30
2018-03-01T16:41:05.723Z,41.60
2018-03-01T16:43:33.470Z,42.10
2018-03-01T16:46:01.976Z,42.40
2018-03-01T16:48:29.590Z,42.30
2018-03-01T16:50:58.125Z,43.00
2018-03-01T16:53:25.887Z,43.00
2018-03-01T16:55:53.543Z,43.00
2018-03-01T16:58:21.178Z,43.40
2018-03-01T17:00:49.792Z,43.80
2018-03-01T17:03:17.575Z,43.80
2018-03-01T17:05:45.340Z,43.80
2018-03-01T17:08:13.110Z,43.90
2018-03-01T17:10:40.760Z,44.10
2018-03-01T17:13:08.466Z,43.90
2018-03-01T17:15:36.936Z,44.30
2018-03-01T17:18:04.586Z,44.30
2018-03-01T17:20:32.306Z,44.60
2018-03-01T17:22:59.946Z,44.50
2018-03-01T17:25:27.637Z,44.70
2018-03-01T17:27:55.471Z,45.00
2018-03-01T17:30:23.503Z,45.20
2018-03-01T17:32:51.665Z,45.00
2018-03-01T17:35:19.348Z,45.30
2018-03-01T17:37:47.186Z,45.60
2018-03-01T17:40:15.034Z,45.80
2018-03-01T17:42:42.784Z,45.60
2018-03-01T17:45:10.498Z,45.80
2018-03-01T17:47:38.221Z,45.90
2018-03-01T17:50:05.884Z,46.00
2018-03-01T17:52:33.592Z,46.10
2018-03-01T17:55:01.368Z,46.10
2018-03-01T17:57:29.821Z,46.50
2018-03-01T17:59:59.702Z,46.60
2018-03-01T18:02:27.496Z,46.50
2018-03-01T18:04:55.093Z,46.50
2018-03-01T18:07:23.518Z,46.70
2018-03-01T18:09:51.236Z,46.60
2018-03-01T18:12:19.745Z,46.90
2018-03-01T18:14:47.411Z,46.90
2018-03-01T18:17:15.078Z,47.20
2018-03-01T18:19:42.765Z,47.10
2018-03-01T18:22:10.449Z,47.10
2018-03-01T18:24:38.087Z,47.10
2018-03-01T18:27:05.772Z,47.30
2018-03-01T18:29:33.489Z,48.30
2018-03-01T18:32:01.171Z,47.90
2018-03-01T18:34:28.867Z,48.80
2018-03-01T18:36:56.531Z,47.60
2018-03-01T18:39:24.984Z,47.70
2018-03-01T18:41:52.620Z,47.70
2018-03-01T18:44:20.307Z,47.90
2018-03-01T18:46:48.044Z,47.90
2018-03-01T18:49:15.823Z,48.10
2018-03-01T18:54:18.285Z,48.10
2018-03-01T18:56:46.158Z,48.10
2018-03-01T18:59:13.815Z,48.30
2018-03-01T19:01:41.510Z,48.50
2018-03-01T19:04:09.276Z,48.20
2018-03-01T19:06:37.179Z,48.40
2018-03-01T19:09:06.568Z,48.30
2018-03-01T19:11:34.348Z,48.30
2018-03-01T19:14:02.807Z,48.40
2018-03-01T19:16:30.629Z,48.30
2018-03-01T19:18:58.325Z,48.40
2018-03-01T19:21:26.920Z,49.00
2018-03-01T19:23:54.821Z,49.20
2018-03-01T19:26:22.542Z,49.30
2018-03-01T19:28:50.363Z,49.30
2018-03-01T19:31:19.186Z,49.40
2018-03-01T19:33:46.916Z,49.20
2018-03-01T19:36:14.675Z,49.50
2018-03-01T19:38:42.310Z,49.40
2018-03-01T19:41:10.114Z,49.40
2018-03-01T19:43:37.815Z,49.80
2018-03-01T19:46:05.488Z,50.00
2018-03-01T19:48:33.994Z,49.90
2018-03-01T19:51:01.684Z,49.90
2018-03-01T19:53:31.578Z,49.90
2018-03-01T19:55:59.319Z,49.90
2018-03-01T19:58:27.025Z,50.10
2018-03-01T20:00:54.739Z,50.10
2018-03-01T20:03:23.264Z,50.00
2018-03-01T20:05:50.906Z,49.90
2018-03-01T20:08:18.627Z,49.90
2018-03-01T20:10:46.275Z,49.80
2018-03-01T20:13:14.160Z,49.70
2018-03-01T20:15:42.016Z,49.80
2018-03-01T20:18:10.625Z,49.90
2018-03-01T20:20:38.319Z,49.80
2018-03-01T20:23:06.123Z,49.80
2018-03-01T20:25:34.263Z,50.10
2018-03-01T20:28:02.044Z,49.90
2018-03-01T20:30:30.002Z,50.00
2018-03-01T20:32:58.360Z,50.00
2018-03-01T20:35:26.028Z,49.90
2018-03-01T20:37:54.544Z,50.00
2018-03-01T20:40:22.244Z,50.00
2018-03-01T20:42:50.804Z,50.30
2018-03-01T20:45:18.473Z,50.30
2018-03-01T20:47:46.373Z,50.30
2018-03-01T20:50:14.099Z,50.30
2018-03-01T20:52:41.909Z,49.90
2018-03-01T20:55:09.633Z,50.30
2018-03-01T20:57:38.478Z,50.70
2018-03-01T21:00:06.314Z,51.30
2018-03-01T21:02:34.061Z,50.40
2018-03-01T21:05:02.627Z,50.70
2018-03-01T21:07:30.694Z,50.70
2018-03-01T21:09:58.366Z,50.60
2018-03-01T21:12:26.969Z,50.70
2018-03-01T21:14:54.635Z,50.70
2018-03-01T21:17:22.527Z,51.00
2018-03-01T21:19:50.170Z,51.00
2018-03-01T21:22:17.917Z,51.00
2018-03-01T21:24:46.397Z,51.20
2018-03-01T21:27:14.117Z,51.20
2018-03-01T21:29:41.790Z,51.40
2018-03-01T21:32:10.436Z,51.80
2018-03-01T21:34:38.138Z,51.70
2018-03-01T21:37:06.028Z,51.70
2018-03-01T21:39:34.550Z,52.50
2018-03-01T21:42:02.201Z,51.90
2018-03-01T21:44:30.100Z,52.00
2018-03-01T21:47:07.434Z,52.40
2018-03-01T21:49:35.892Z,53.00
2018-03-01T21:52:04.620Z,53.00
2018-03-01T21:54:32.537Z,53.30
2018-03-01T21:57:00.286Z,53.40
2018-03-01T21:59:27.942Z,53.30
2018-03-01T22:01:55.655Z,53.50
2018-03-01T22:04:23.277Z,53.70
2018-03-01T22:06:51.170Z,54.50
2018-03-01T22:09:18.781Z,54.00
2018-03-01T22:11:46.501Z,54.20
2018-03-01T22:14:15.154Z,54.50
2018-03-01T22:16:43.099Z,54.50
2018-03-01T22:19:11.004Z,54.50
2018-03-01T22:21:38.620Z,54.50
2018-03-01T22:24:06.250Z,54.60
2018-03-01T22:26:34.070Z,54.60
2018-03-01T22:29:01.866Z,54.80
2018-03-01T22:31:29.559Z,54.90
2018-03-01T22:33:57.295Z,55.10
2018-03-01T22:36:25.919Z,55.30
2018-03-01T22:38:53.608Z,55.30
2018-03-01T22:41:21.233Z,55.30
2018-03-01T22:43:48.996Z,55.30
2018-03-01T22:46:16.721Z,55.30
2018-03-01T22:48:45.376Z,55.80
2018-03-01T22:51:13.025Z,55.80
2018-03-01T22:53:41.320Z,55.90
2018-03-01T22:56:09.004Z,55.70
2018-03-01T22:58:37.504Z,56.20
2018-03-01T23:01:05.157Z,56.20
2018-03-01T23:03:33.610Z,56.40
2018-03-01T23:06:01.241Z,56.90
2018-03-01T23:08:28.876Z,56.20
2018-03-01T23:10:57.344Z,56.30
2018-03-01T23:13:25.991Z,56.50
2018-03-01T23:15:53.959Z,56.50
2018-03-01T23:18:21.617Z,56.50
2018-03-01T23:20:49.403Z,56.60
2018-03-01T23:23:17.070Z,56.60
2018-03-01T23:25:46.665Z,56.70
2018-03-01T23:28:14.283Z,56.70
2018-03-01T23:30:41.933Z,56.70
2018-03-01T23:33:09.528Z,56.70
2018-03-01T23:35:37.286Z,56.80
2018-03-01T23:38:04.959Z,56.90
2018-03-01T23:40:32.579Z,56.90
2018-03-01T23:43:00.249Z,57.00
2018-03-01T23:45:27.912Z,57.10
2018-03-01T23:47:55.576Z,57.10
2018-03-01T23:50:23.274Z,57.30
2018-03-01T23:52:51.239Z,57.20
2018-03-01T23:55:18.881Z,57.50
2018-03-01T23:57:46.485Z,57.40
